createdAt,value
2023-04-19T00:00:54.380Z,5.30
2023-04-19T00:03:24.868Z,5.40
2023-04-19T00:05:54.383Z,4.80
2023-04-19T00:08:23.886Z,4.60
2023-04-19T00:10:52.045Z,4.80
2023-04-19T00:13:20.633Z,4.30
2023-04-19T00:15:49.078Z,5.10
2023-04-19T00:18:17.174Z,4.80
2023-04-19T00:20:45.082Z,4.10
2023-04-19T00:23:13.171Z,5.00
2023-04-19T00:28:44.421Z,5.10
2023-04-19T00:31:12.667Z,5.30
2023-04-19T00:33:40.613Z,4.70
2023-04-19T00:36:09.934Z,5.50
2023-04-19T00:38:37.969Z,5.40
2023-04-19T00:41:05.905Z,5.50
2023-04-19T00:43:34.043Z,5.50
2023-04-19T00:46:02.072Z,5.10
2023-04-19T00:48:30.961Z,6.00
2023-04-19T00:50:58.878Z,5.10
2023-04-19T00:53:26.824Z,5.10
2023-04-19T00:55:55.112Z,4.80
2023-04-19T00:58:23.582Z,6.00
2023-04-19T01:00:51.830Z,4.80
2023-04-19T01:03:23.126Z,5.20
2023-04-19T01:05:52.753Z,5.60
2023-04-19T01:08:21.260Z,5.60
2023-04-19T01:10:49.274Z,5.10
2023-04-19T01:13:17.274Z,5.50
2023-04-19T01:15:45.474Z,5.50
2023-04-19T01:18:14.279Z,5.00
2023-04-19T01:20:43.972Z,5.00
2023-04-19T01:23:12.496Z,6.00
2023-04-19T01:25:40.411Z,4.60
2023-04-19T01:28:08.305Z,5.70
2023-04-19T01:30:36.944Z,6.00
2023-04-19T01:33:05.006Z,6.00
2023-04-19T01:35:34.168Z,5.60
2023-04-19T01:38:02.338Z,5.40
2023-04-19T01:40:30.427Z,5.30
2023-04-19T01:42:59.307Z,5.60
2023-04-19T01:45:27.598Z,5.40
2023-04-19T01:47:56.128Z,5.80
2023-04-19T01:50:24.118Z,4.90
2023-04-19T01:52:52.023Z,5.70
2023-04-19T01:55:19.943Z,6.80
2023-04-19T01:57:47.979Z,5.70
2023-04-19T02:00:18.060Z,7.50
2023-04-19T02:02:48.644Z,6.80
2023-04-19T02:05:16.887Z,6.60
2023-04-19T02:07:44.948Z,7.40
2023-04-19T02:10:12.830Z,5.10
2023-04-19T02:12:42.638Z,6.70
2023-04-19T02:15:10.709Z,6.80
2023-04-19T02:17:39.025Z,7.00
2023-04-19T02:20:09.120Z,7.50
2023-04-19T02:22:37.140Z,7.10
2023-04-19T02:25:05.678Z,6.20
2023-04-19T02:27:35.138Z,7.60
2023-04-19T02:30:03.092Z,6.70
2023-04-19T02:32:32.716Z,6.10
2023-04-19T02:35:01.108Z,6.30
2023-04-19T02:37:30.975Z,6.70
2023-04-19T02:39:59.004Z,7.40
2023-04-19T02:42:29.011Z,6.90
2023-04-19T02:44:57.173Z,6.30
2023-04-19T02:47:25.586Z,6.00
2023-04-19T02:49:53.511Z,5.70
2023-04-19T02:52:21.695Z,6.20
2023-04-19T02:54:49.639Z,5.90
2023-04-19T02:57:17.610Z,5.60
2023-04-19T02:59:46.090Z,6.00
2023-04-19T03:02:14.011Z,6.20
2023-04-19T03:04:43.653Z,6.20
2023-04-19T03:07:13.934Z,5.20
2023-04-19T03:09:42.355Z,5.30
2023-04-19T03:12:10.389Z,5.90
2023-04-19T03:14:39.548Z,5.40
2023-04-19T03:17:07.521Z,5.30
2023-04-19T03:19:37.530Z,6.00
2023-04-19T03:22:06.318Z,5.00
2023-04-19T03:24:37.576Z,6.20
2023-04-19T03:27:16.413Z,5.60
2023-04-19T03:29:46.671Z,5.10
2023-04-19T03:34:44.222Z,6.20
2023-04-19T03:37:14.015Z,7.30
2023-04-19T03:39:42.597Z,8.20
2023-04-19T03:42:14.234Z,8.00
2023-04-19T03:44:50.642Z,7.00
2023-04-19T03:47:18.995Z,8.90
2023-04-19T03:49:48.892Z,6.70
2023-04-19T03:52:18.194Z,5.70
2023-04-19T03:54:46.414Z,5.60
2023-04-19T03:57:26.353Z,4.80
2023-04-19T03:59:54.852Z,6.10
2023-04-19T04:02:22.985Z,5.00
2023-04-19T04:04:55.293Z,5.10
2023-04-19T04:07:24.743Z,5.80
2023-04-19T04:09:53.059Z,5.40
2023-04-19T04:12:20.989Z,5.00
2023-04-19T04:14:49.602Z,5.30
2023-04-19T04:17:17.640Z,4.80
2023-04-19T04:19:45.785Z,5.70
2023-04-19T04:22:14.278Z,4.90
2023-04-19T04:24:44.111Z,4.20
2023-04-19T04:27:24.257Z,4.70
2023-04-19T04:29:54.773Z,4.70
2023-04-19T04:32:23.985Z,4.80
2023-04-19T04:34:55.377Z,4.90
2023-04-19T04:37:31.227Z,4.90
2023-04-19T04:40:01.313Z,5.60
2023-04-19T04:42:31.522Z,6.20
2023-04-19T04:45:01.647Z,5.40
2023-04-19T04:47:32.466Z,5.00
2023-04-19T04:52:30.860Z,5.40
2023-04-19T04:55:28.308Z,5.20
2023-04-19T04:57:56.437Z,5.40
2023-04-19T05:00:31.051Z,4.40
2023-04-19T05:03:04.894Z,6.10
2023-04-19T05:05:36.317Z,5.10
2023-04-19T05:08:04.817Z,4.70
2023-04-19T05:10:33.205Z,4.00
2023-04-19T05:13:05.564Z,4.40
2023-04-19T05:15:34.672Z,4.40
2023-04-19T05:18:02.720Z,4.80
2023-04-19T05:20:31.019Z,4.80
2023-04-19T05:23:13.703Z,4.60
2023-04-19T05:25:42.450Z,5.20
2023-04-19T05:28:11.303Z,5.10
2023-04-19T05:33:34.864Z,5.60
2023-04-19T05:36:02.974Z,5.50
2023-04-19T05:38:31.226Z,5.70
2023-04-19T05:40:59.756Z,5.30
2023-04-19T05:43:27.662Z,5.20
2023-04-19T05:45:56.375Z,5.60
2023-04-19T05:48:25.648Z,5.20
2023-04-19T05:51:01.065Z,5.00
2023-04-19T05:53:57.447Z,5.70
2023-04-19T05:56:26.320Z,5.20
2023-04-19T05:58:56.262Z,5.80
2023-04-19T06:01:24.368Z,5.10
2023-04-19T06:03:53.346Z,6.30
2023-04-19T06:06:22.636Z,6.40
2023-04-19T06:08:52.028Z,5.00
2023-04-19T06:11:31.452Z,5.90
2023-04-19T06:14:06.677Z,6.10
2023-04-19T06:16:34.864Z,4.80
2023-04-19T06:19:03.630Z,4.00
2023-04-19T06:21:31.958Z,4.00
2023-04-19T06:24:00.739Z,3.80
2023-04-19T06:26:28.906Z,4.60
2023-04-19T06:28:56.938Z,3.90
2023-04-19T06:31:24.983Z,3.60
2023-04-19T06:33:52.918Z,3.70
2023-04-19T06:36:20.828Z,4.00
2023-04-19T06:38:50.054Z,3.20
2023-04-19T06:41:18.428Z,3.60
2023-04-19T06:43:46.864Z,3.70
2023-04-19T06:46:15.933Z,3.40
2023-04-19T06:48:44.194Z,3.40
2023-04-19T06:51:12.335Z,3.10
2023-04-19T06:53:40.395Z,3.90
2023-04-19T06:56:08.305Z,3.80
2023-04-19T06:58:36.928Z,4.20
2023-04-19T07:01:05.108Z,3.50
2023-04-19T07:03:33.259Z,3.20
2023-04-19T07:06:01.676Z,4.00
2023-04-19T07:08:42.462Z,3.40
2023-04-19T07:11:16.553Z,3.50
2023-04-19T07:13:44.613Z,3.60
2023-04-19T07:16:14.634Z,4.30
2023-04-19T07:18:43.890Z,3.50
2023-04-19T07:21:12.186Z,4.20
2023-04-19T07:23:40.269Z,3.60
2023-04-19T07:26:08.180Z,4.00
2023-04-19T07:28:36.142Z,4.00
2023-04-19T07:31:04.126Z,3.80
2023-04-19T07:33:32.430Z,4.10
2023-04-19T07:36:00.415Z,3.70
2023-04-19T07:38:29.353Z,3.80
2023-04-19T07:40:57.300Z,3.40
2023-04-19T07:43:26.146Z,3.30
2023-04-19T07:45:54.370Z,3.60
2023-04-19T07:48:22.377Z,4.20
2023-04-19T07:50:50.595Z,5.50
2023-04-19T07:53:18.697Z,4.40
2023-04-19T07:55:46.844Z,3.40
2023-04-19T07:58:14.987Z,3.30
2023-04-19T08:00:42.868Z,3.10
2023-04-19T08:03:11.086Z,3.50
2023-04-19T08:05:39.798Z,3.30
2023-04-19T08:08:07.843Z,3.50
2023-04-19T08:10:37.009Z,3.30
2023-04-19T08:13:06.576Z,4.00
2023-04-19T08:18:06.343Z,3.40
2023-04-19T08:20:34.628Z,3.20
2023-04-19T08:23:14.110Z,3.40
2023-04-19T08:25:49.309Z,4.10
2023-04-19T08:28:18.473Z,4.20
2023-04-19T08:30:46.484Z,3.30
2023-04-19T08:33:14.603Z,4.10
2023-04-19T08:35:42.549Z,3.20
2023-04-19T08:38:13.509Z,3.20
2023-04-19T08:40:45.972Z,3.80
2023-04-19T08:43:13.905Z,3.90
2023-04-19T08:45:41.832Z,3.40
2023-04-19T08:48:11.854Z,4.10
2023-04-19T08:50:55.829Z,3.50
2023-04-19T08:53:29.808Z,3.90
2023-04-19T08:58:51.917Z,2.90
2023-04-19T09:04:03.378Z,3.80
2023-04-19T09:06:38.882Z,3.40
2023-04-19T09:09:35.354Z,3.10
2023-04-19T09:12:17.750Z,3.50
2023-04-19T09:17:21.498Z,3.00
2023-04-19T09:19:49.693Z,3.00
2023-04-19T09:22:18.806Z,3.00
2023-04-19T09:25:14.561Z,3.50
2023-04-19T09:27:36.916Z,3.10
2023-04-19T09:30:06.687Z,3.60
2023-04-19T09:32:48.835Z,3.80
2023-04-19T09:35:17.475Z,3.60
2023-04-19T09:38:05.410Z,3.30
2023-04-19T09:40:35.332Z,2.90
2023-04-19T09:43:23.156Z,3.50
2023-04-19T09:45:51.702Z,4.00
2023-04-19T09:48:19.836Z,3.60
2023-04-19T09:50:59.027Z,5.20
2023-04-19T09:53:32.853Z,4.20
2023-04-19T09:56:02.975Z,6.50
2023-04-19T09:58:42.529Z,4.20
2023-04-19T10:01:17.424Z,4.70
2023-04-19T10:03:46.589Z,3.30
2023-04-19T10:08:51.471Z,4.00
2023-04-19T10:11:22.034Z,4.20
2023-04-19T10:13:54.830Z,4.20
2023-04-19T10:16:22.743Z,3.30
2023-04-19T10:18:51.328Z,4.00
2023-04-19T10:21:19.709Z,4.30
2023-04-19T10:23:47.750Z,3.80
2023-04-19T10:26:16.100Z,4.10
2023-04-19T10:28:44.206Z,4.10
2023-04-19T10:31:16.090Z,3.90
2023-04-19T10:33:44.377Z,4.40
2023-04-19T10:36:15.046Z,3.30
2023-04-19T10:38:44.762Z,4.80
2023-04-19T10:41:16.991Z,3.90
2023-04-19T10:44:08.692Z,4.10
2023-04-19T10:46:38.127Z,5.40
2023-04-19T10:49:06.315Z,5.90
2023-04-19T10:51:44.362Z,6.30
2023-04-19T10:54:32.516Z,5.40
2023-04-19T10:57:06.762Z,4.90
2023-04-19T10:59:35.584Z,5.00
2023-04-19T11:02:05.051Z,5.10
2023-04-19T11:04:33.354Z,5.00
2023-04-19T11:07:05.527Z,5.40
2023-04-19T11:09:42.256Z,6.00
2023-04-19T11:12:21.059Z,4.30
2023-04-19T11:14:53.522Z,5.40
2023-04-19T11:17:27.139Z,4.70
2023-04-19T11:20:09.415Z,4.70
2023-04-19T11:22:42.767Z,5.20
2023-04-19T11:25:18.215Z,5.60
2023-04-19T11:27:51.042Z,4.70
2023-04-19T11:30:28.311Z,5.70
2023-04-19T11:32:56.762Z,5.40
2023-04-19T11:35:26.313Z,4.30
2023-04-19T11:37:55.205Z,4.70
2023-04-19T11:40:24.533Z,5.70
2023-04-19T11:42:57.454Z,5.60
2023-04-19T11:45:35.457Z,4.70
2023-04-19T11:48:07.895Z,6.00
2023-04-19T11:50:42.642Z,5.80
2023-04-19T11:53:12.459Z,5.10
2023-04-19T11:55:52.139Z,5.20
2023-04-19T11:58:25.320Z,5.00
2023-04-19T12:00:53.375Z,5.50
2023-04-19T12:03:26.016Z,7.00
2023-04-19T12:05:58.854Z,5.90
2023-04-19T12:08:32.131Z,6.30
2023-04-19T12:11:00.463Z,6.30
2023-04-19T12:13:29.602Z,4.70
2023-04-19T12:15:57.485Z,5.90
2023-04-19T12:18:25.824Z,6.50
2023-04-19T12:20:54.056Z,5.40
2023-04-19T12:23:22.281Z,5.50
2023-04-19T12:25:53.422Z,6.00
2023-04-19T12:28:21.400Z,6.50
2023-04-19T12:30:49.366Z,7.30
2023-04-19T12:33:17.477Z,5.50
2023-04-19T12:35:47.863Z,5.90
2023-04-19T12:38:17.506Z,6.40
2023-04-19T12:40:45.520Z,6.50
2023-04-19T12:45:27.010Z,6.90
2023-04-19T12:47:54.960Z,7.60
2023-04-19T12:50:22.875Z,7.60
2023-04-19T12:52:51.930Z,7.60
2023-04-19T12:55:22.776Z,7.40
2023-04-19T12:57:51.424Z,7.20
2023-04-19T13:00:20.128Z,7.40
2023-04-19T13:02:48.871Z,7.70
2023-04-19T13:05:17.136Z,7.70
2023-04-19T13:07:45.131Z,7.00
2023-04-19T13:10:13.190Z,6.70
2023-04-19T13:12:41.906Z,7.10
2023-04-19T13:15:10.350Z,7.60
2023-04-19T13:17:38.633Z,7.30
2023-04-19T13:20:07.786Z,6.60
2023-04-19T13:22:36.470Z,8.20
2023-04-19T13:25:05.494Z,6.40
2023-04-19T13:27:34.693Z,6.80
2023-04-19T13:30:02.736Z,6.70
2023-04-19T13:32:30.912Z,6.10
2023-04-19T13:34:58.790Z,6.10
2023-04-19T13:37:27.891Z,6.20
2023-04-19T13:40:06.973Z,5.40
2023-04-19T13:42:43.234Z,8.20
2023-04-19T13:45:11.794Z,6.50
2023-04-19T13:47:40.227Z,7.30
2023-04-19T13:50:08.596Z,6.40
2023-04-19T13:52:36.797Z,6.80
2023-04-19T13:55:05.162Z,7.00
2023-04-19T13:57:33.176Z,7.20
2023-04-19T14:00:01.033Z,6.70
2023-04-19T14:02:30.141Z,6.80
2023-04-19T14:04:59.660Z,6.40
2023-04-19T14:07:27.629Z,8.30
2023-04-19T14:09:56.635Z,6.80
2023-04-19T14:12:24.792Z,6.90
2023-04-19T14:14:53.781Z,6.50
2023-04-19T14:17:21.819Z,6.90
2023-04-19T14:19:49.786Z,6.60
2023-04-19T14:22:18.012Z,5.80
2023-04-19T14:24:46.282Z,6.30
2023-04-19T14:27:14.295Z,5.60
2023-04-19T14:29:42.202Z,6.40
2023-04-19T14:32:24.043Z,6.00
2023-04-19T14:34:55.876Z,6.10
2023-04-19T14:37:24.601Z,6.00
2023-04-19T14:39:52.864Z,6.20
2023-04-19T14:42:22.907Z,5.80
2023-04-19T14:44:52.108Z,5.90
2023-04-19T14:47:21.002Z,6.30
2023-04-19T14:49:49.131Z,5.20
2023-04-19T14:52:17.175Z,6.70
2023-04-19T14:54:45.496Z,6.40
2023-04-19T14:57:14.412Z,6.40
2023-04-19T14:59:42.986Z,4.80
2023-04-19T15:02:11.436Z,6.10
2023-04-19T15:04:41.347Z,5.70
2023-04-19T15:07:09.968Z,6.80
2023-04-19T15:09:38.660Z,7.30
2023-04-19T15:12:06.856Z,6.70
2023-04-19T15:14:34.920Z,7.30
2023-04-19T15:17:02.880Z,6.70
2023-04-19T15:19:30.975Z,7.50
2023-04-19T15:21:58.933Z,8.30
2023-04-19T15:24:26.826Z,8.20
2023-04-19T15:26:54.734Z,8.30
2023-04-19T15:29:22.712Z,7.50
2023-04-19T15:31:50.743Z,9.90
2023-04-19T15:34:18.831Z,8.40
2023-04-19T15:36:47.259Z,9.80
2023-04-19T15:39:15.502Z,8.70
2023-04-19T15:41:43.638Z,8.20
2023-04-19T15:44:11.802Z,7.30
2023-04-19T15:46:39.764Z,8.50
2023-04-19T15:49:07.739Z,6.50
2023-04-19T15:51:36.063Z,8.20
2023-04-19T15:54:03.999Z,7.90
2023-04-19T15:56:32.454Z,7.50
2023-04-19T15:59:00.435Z,6.90
2023-04-19T16:01:28.858Z,6.70
2023-04-19T16:03:56.972Z,5.80
2023-04-19T16:06:25.223Z,6.40
2023-04-19T16:08:53.672Z,6.20
2023-04-19T16:11:22.009Z,5.80
2023-04-19T16:13:50.014Z,5.80
2023-04-19T16:16:18.391Z,6.80
2023-04-19T16:18:47.318Z,7.50
2023-04-19T16:21:15.326Z,7.00
2023-04-19T16:23:44.314Z,7.00
2023-04-19T16:26:12.808Z,8.20
2023-04-19T16:28:41.104Z,8.70
2023-04-19T16:31:09.282Z,9.10
2023-04-19T16:33:37.331Z,9.30
2023-04-19T16:36:05.598Z,10.20
2023-04-19T16:38:33.746Z,9.50
2023-04-19T16:41:04.666Z,9.70
2023-04-19T16:43:33.139Z,9.60
2023-04-19T16:46:01.911Z,9.90
2023-04-19T16:48:29.911Z,10.60
2023-04-19T16:50:57.888Z,11.20
2023-04-19T16:53:26.149Z,10.30
2023-04-19T16:55:56.348Z,10.10
2023-04-19T16:58:24.921Z,8.10
2023-04-19T17:00:53.032Z,5.90
2023-04-19T17:03:22.032Z,4.60
2023-04-19T17:05:50.286Z,4.10
2023-04-19T17:08:18.176Z,4.30
2023-04-19T17:10:46.167Z,3.80
2023-04-19T17:13:14.146Z,3.70
2023-04-19T17:15:42.162Z,3.80
2023-04-19T17:18:10.231Z,4.40
2023-04-19T17:20:38.212Z,4.10
2023-04-19T17:23:06.413Z,4.40
2023-04-19T17:25:34.397Z,4.30
2023-04-19T17:28:02.343Z,4.10
2023-04-19T17:30:30.559Z,4.40
2023-04-19T17:32:58.689Z,4.20
2023-04-19T17:35:27.348Z,5.00
2023-04-19T17:37:55.412Z,4.50
2023-04-19T17:40:23.457Z,4.20
2023-04-19T17:42:51.378Z,5.50
2023-04-19T17:45:19.347Z,5.00
2023-04-19T17:47:55.338Z,3.90
2023-04-19T17:50:26.408Z,4.00
2023-04-19T17:52:55.095Z,4.60
2023-04-19T17:55:23.303Z,4.30
2023-04-19T17:57:51.427Z,4.90
2023-04-19T18:00:22.661Z,4.50
2023-04-19T18:02:51.766Z,4.10
2023-04-19T18:05:19.877Z,4.40
2023-04-19T18:07:48.027Z,4.10
2023-04-19T18:10:15.936Z,4.50
2023-04-19T18:12:44.544Z,4.10
2023-04-19T18:15:12.555Z,4.00
2023-04-19T18:17:41.327Z,4.10
2023-04-19T18:20:11.212Z,4.50
2023-04-19T18:22:40.399Z,5.00
2023-04-19T18:25:08.792Z,5.00
2023-04-19T18:27:37.253Z,4.30
2023-04-19T18:30:06.558Z,4.70
2023-04-19T18:32:35.696Z,4.40
2023-04-19T18:35:08.862Z,4.30
2023-04-19T18:37:37.012Z,4.40
2023-04-19T18:40:07.265Z,4.50
2023-04-19T18:42:35.681Z,5.10
2023-04-19T18:45:04.197Z,5.30
2023-04-19T18:47:33.122Z,5.00
2023-04-19T18:50:05.930Z,5.30
2023-04-19T18:52:36.057Z,5.30
2023-04-19T18:55:07.603Z,5.30
2023-04-19T18:57:36.293Z,5.40
2023-04-19T19:00:06.533Z,5.00
2023-04-19T19:02:37.069Z,6.10
2023-04-19T19:05:07.490Z,5.30
2023-04-19T19:07:37.949Z,5.60
2023-04-19T19:10:18.428Z,6.10
2023-04-19T19:12:50.033Z,5.10
2023-04-19T19:15:18.511Z,6.20
2023-04-19T19:17:49.869Z,5.50
2023-04-19T19:20:19.611Z,5.60
2023-04-19T19:22:51.440Z,5.60
2023-04-19T19:25:19.738Z,5.10
2023-04-19T19:28:05.464Z,6.00
2023-04-19T19:30:39.769Z,5.90
2023-04-19T19:33:08.024Z,5.00
2023-04-19T19:35:36.774Z,5.40
2023-04-19T19:38:04.675Z,5.90
2023-04-19T19:40:33.229Z,5.80
2023-04-19T19:43:01.606Z,5.00
2023-04-19T19:45:33.185Z,6.60
2023-04-19T19:48:01.542Z,7.20
2023-04-19T19:55:30.392Z,5.40
2023-04-19T19:58:16.390Z,5.60
2023-04-19T20:00:50.268Z,4.70
2023-04-19T20:03:33.149Z,5.80
2023-04-19T20:06:35.651Z,5.30
2023-04-19T20:08:57.382Z,5.90
2023-04-19T20:11:25.610Z,5.40
2023-04-19T20:13:53.488Z,5.90
2023-04-19T20:16:21.612Z,6.20
2023-04-19T20:18:49.587Z,6.70
2023-04-19T20:21:18.064Z,6.80
2023-04-19T20:23:47.289Z,6.20
2023-04-19T20:26:15.497Z,6.10
2023-04-19T20:28:43.444Z,5.30
2023-04-19T20:31:11.441Z,7.20
2023-04-19T20:33:39.518Z,6.60
2023-04-19T20:36:07.748Z,6.50
2023-04-19T20:38:35.864Z,6.00
2023-04-19T20:41:03.836Z,7.10
2023-04-19T20:43:32.551Z,6.90
2023-04-19T20:46:00.646Z,6.70
2023-04-19T20:48:28.922Z,7.40
2023-04-19T20:50:56.843Z,6.80
2023-04-19T20:53:24.898Z,7.20
2023-04-19T20:55:52.790Z,7.60
2023-04-19T20:58:20.829Z,7.50
2023-04-19T21:00:49.884Z,7.50
2023-04-19T21:03:18.448Z,8.40
2023-04-19T21:05:46.449Z,7.40
2023-04-19T21:08:16.161Z,8.30
2023-04-19T21:10:44.175Z,9.30
2023-04-19T21:13:12.083Z,9.00
2023-04-19T21:15:40.017Z,7.80
2023-04-19T21:18:08.128Z,8.10
2023-04-19T21:20:36.428Z,7.30
2023-04-19T21:23:04.436Z,7.20
2023-04-19T21:25:32.362Z,6.50
2023-04-19T21:28:00.384Z,6.80
2023-04-19T21:30:29.948Z,7.70
2023-04-19T21:32:58.283Z,6.40
2023-04-19T21:35:26.421Z,7.00
2023-04-19T21:37:54.555Z,7.00
2023-04-19T21:40:22.610Z,6.10
2023-04-19T21:42:50.733Z,6.30
2023-04-19T21:45:18.736Z,6.70
2023-04-19T21:47:46.741Z,6.60
2023-04-19T21:50:14.771Z,6.20
2023-04-19T21:52:42.687Z,6.30
2023-04-19T21:55:10.678Z,6.00
2023-04-19T21:57:38.699Z,5.20
2023-04-19T22:00:09.281Z,5.90
2023-04-19T22:05:07.394Z,5.40
2023-04-19T22:07:38.236Z,6.00
2023-04-19T22:10:07.455Z,6.20
2023-04-19T22:12:40.598Z,5.90
2023-04-19T22:15:16.274Z,5.30
2023-04-19T22:17:44.634Z,5.00
2023-04-19T22:20:13.028Z,5.70
2023-04-19T22:22:41.341Z,5.80
2023-04-19T22:25:11.995Z,4.90
2023-04-19T22:27:40.314Z,5.90
2023-04-19T22:30:08.526Z,6.00
2023-04-19T22:32:37.062Z,6.70
2023-04-19T22:35:05.871Z,5.10
2023-04-19T22:37:34.196Z,4.90
2023-04-19T22:40:02.258Z,5.90
2023-04-19T22:42:30.599Z,6.10
2023-04-19T22:44:58.757Z,6.30
2023-04-19T22:47:27.205Z,5.10
2023-04-19T22:49:55.108Z,4.90
2023-04-19T22:52:23.826Z,4.90
2023-04-19T22:54:51.857Z,5.20
2023-04-19T22:57:19.864Z,5.60
2023-04-19T22:59:48.931Z,6.00
2023-04-19T23:02:16.943Z,5.50
2023-04-19T23:04:45.115Z,5.50
2023-04-19T23:07:13.447Z,5.40
2023-04-19T23:09:41.766Z,5.60
2023-04-19T23:12:11.087Z,4.90
2023-04-19T23:14:39.489Z,5.70
2023-04-19T23:17:07.578Z,4.90
2023-04-19T23:19:37.559Z,4.90
2023-04-19T23:22:05.766Z,5.00
2023-04-19T23:24:36.200Z,5.30
2023-04-19T23:27:04.719Z,5.50
2023-04-19T23:29:32.684Z,5.50
2023-04-19T23:32:01.627Z,5.50
2023-04-19T23:34:29.672Z,5.50
2023-04-19T23:36:57.710Z,6.00
2023-04-19T23:39:25.636Z,5.70
2023-04-19T23:41:53.524Z,5.10
2023-04-19T23:44:21.487Z,5.20
2023-04-19T23:46:49.441Z,6.10
2023-04-19T23:49:17.563Z,5.60
2023-04-19T23:51:47.552Z,5.40
2023-04-19T23:54:16.836Z,5.10
2023-04-19T23:56:45.521Z,4.50
2023-04-19T23:59:13.511Z,5.30
